Terminal Aerodrome Forecast
Issued by NWS

Home | Current Version | Previous Version | Text Only | Print | Product List | Glossary On
Versions: 1 2 3 4 5 6 7 8 9 10 11 12 13 14 15
000
FTUS43 KBIS 190500
TAFDIK
TAF
KDIK 190540Z 1906/2006 28019G28KT P6SM SCT015
      TEMPO 1906/1909 32018G28KT -SHRA OVC080
     FM190900 28017G23KT P6SM SCT250
     FM191400 28021G29KT P6SM FEW250
     FM192200 28017G24KT P6SM SKC
     FM200000 27011KT P6SM SKC
     FM200200 VRB03KT P6SM SKC=

USA.gov is the U.S. government's official web portal to all federal, state and local government web resources and services.